createdAt,value
2023-01-13T00:03:05.646Z,0.93
2023-01-13T00:13:06.938Z,1.02
2023-01-13T00:23:08.637Z,1.20
2023-01-13T00:43:24.990Z,1.00
2023-01-13T00:53:26.310Z,1.20
2023-01-13T01:03:27.966Z,1.55
2023-01-13T01:13:29.376Z,1.67
2023-01-13T01:23:31.177Z,1.65
2023-01-13T01:33:32.473Z,1.65
2023-01-13T01:43:33.921Z,1.75
2023-01-13T01:53:35.420Z,2.10
2023-01-13T02:03:37.255Z,1.95
2023-01-13T02:13:38.648Z,2.33
2023-01-13T02:23:39.970Z,2.20
2023-01-13T02:33:41.275Z,2.20
2023-01-13T02:43:42.639Z,2.10
2023-01-13T02:53:43.962Z,2.30
2023-01-13T03:03:48.089Z,2.28
2023-01-13T03:13:51.130Z,2.00
2023-01-13T03:23:52.438Z,2.30
2023-01-13T03:34:00.060Z,2.08
2023-01-13T03:44:01.473Z,2.00
2023-01-13T03:54:02.850Z,2.25
2023-01-13T04:04:04.292Z,1.95
2023-01-13T04:14:05.807Z,1.73
2023-01-13T04:24:22.111Z,1.70
2023-01-13T04:34:23.443Z,1.50
2023-01-13T04:44:24.815Z,1.50
2023-01-13T04:54:26.078Z,1.65
2023-01-13T05:04:27.352Z,1.42
2023-01-13T05:14:28.626Z,1.80
2023-01-13T05:24:29.922Z,1.30
2023-01-13T05:34:31.189Z,1.60
2023-01-13T05:44:32.476Z,1.63
2023-01-13T05:54:33.894Z,1.77
2023-01-13T06:04:35.207Z,1.60
2023-01-13T06:14:37.263Z,1.60
2023-01-13T06:24:38.669Z,1.67
2023-01-13T06:34:39.906Z,1.65
2023-01-13T06:44:41.186Z,1.65
2023-01-13T06:54:42.477Z,1.50
2023-01-13T07:04:44.010Z,1.50
2023-01-13T07:14:45.276Z,1.85
2023-01-13T07:24:46.595Z,1.92
2023-01-13T07:34:48.047Z,2.03
2023-01-13T07:44:49.591Z,2.03
2023-01-13T07:55:10.503Z,1.50
2023-01-13T08:05:11.853Z,1.60
2023-01-13T08:15:20.872Z,2.00
2023-01-13T08:25:22.609Z,1.90
2023-01-13T08:35:24.234Z,2.08
2023-01-13T08:45:25.677Z,2.00
2023-01-13T08:55:29.186Z,2.00
2023-01-13T09:05:37.915Z,2.00
2023-01-13T09:15:51.364Z,2.20
2023-01-13T09:26:02.577Z,2.55
2023-01-13T09:36:04.214Z,2.35
2023-01-13T09:46:22.087Z,2.30
2023-01-13T10:06:33.475Z,2.22
2023-01-13T10:17:23.831Z,1.90
2023-01-13T10:26:59.026Z,2.28
2023-01-13T10:37:00.355Z,2.40
2023-01-13T10:47:01.736Z,2.50
2023-01-13T10:57:05.009Z,2.55
2023-01-13T11:07:09.090Z,2.58
2023-01-13T11:17:10.416Z,2.15
2023-01-13T11:27:13.123Z,2.38
2023-01-13T11:48:03.459Z,2.50
2023-01-13T12:08:24.131Z,2.20
2023-01-13T12:49:22.398Z,2.10
2023-01-13T13:09:40.532Z,2.38
2023-01-13T13:19:49.461Z,2.20
2023-01-13T13:40:11.463Z,2.30
2023-01-13T13:50:12.971Z,2.20
2023-01-13T14:00:14.544Z,1.63
2023-01-13T14:21:24.129Z,2.03
2023-01-13T14:41:28.039Z,2.55
2023-01-13T14:51:44.261Z,1.90
2023-01-13T15:01:48.681Z,1.98
2023-01-13T15:11:51.138Z,2.30
2023-01-13T15:21:59.087Z,2.30
2023-01-13T15:32:08.112Z,2.10
2023-01-13T15:42:09.416Z,2.08
2023-01-13T15:52:10.879Z,2.10
2023-01-13T16:12:41.029Z,2.30
2023-01-13T16:22:50.105Z,2.60
2023-01-13T16:32:51.465Z,2.45
2023-01-13T16:42:52.745Z,2.63
2023-01-13T16:52:54.038Z,2.58
2023-01-13T17:02:55.311Z,2.50
2023-01-13T17:13:14.085Z,2.00
2023-01-13T17:23:17.138Z,2.50
2023-01-13T17:33:18.396Z,2.55
2023-01-13T17:43:19.633Z,2.47
2023-01-13T17:53:20.859Z,2.83
2023-01-13T18:03:22.093Z,2.33
2023-01-13T18:13:23.457Z,1.98
2023-01-13T18:23:24.756Z,2.10
2023-01-13T18:33:26.023Z,2.20
2023-01-13T18:43:27.243Z,2.17
2023-01-13T18:53:29.585Z,2.33
2023-01-13T19:03:30.878Z,2.40
2023-01-13T19:13:32.191Z,2.05
2023-01-13T19:23:33.472Z,2.22
2023-01-13T19:33:34.710Z,2.20
2023-01-13T19:43:35.984Z,2.30
2023-01-13T19:53:37.505Z,1.90
2023-01-13T20:03:38.780Z,2.00
2023-01-13T20:13:40.048Z,1.98
2023-01-13T20:23:41.318Z,2.20
2023-01-13T20:33:42.584Z,2.10
2023-01-13T20:43:43.844Z,2.00
2023-01-13T20:53:45.463Z,2.10
2023-01-13T21:03:46.783Z,1.98
2023-01-13T21:13:48.317Z,2.35
